sensor_id;sensor_type;location;lat;lon;timestamp;P1;durP1;ratioP1;P2;durP2;ratioP2
10144;SDS011;5113;41.822;23.564;2023-03-19T00:01:41;19.17;;;12.50;;
10144;SDS011;5113;41.822;23.564;2023-03-19T00:04:50;28.73;;;14.00;;
10144;SDS011;5113;41.822;23.564;2023-03-19T00:07:56;28.57;;;17.60;;
10144;SDS011;5113;41.822;23.564;2023-03-19T00:11:06;29.93;;;16.37;;
10144;SDS011;5113;41.822;23.564;2023-03-19T00:14:14;38.07;;;18.50;;
10144;SDS011;5113;41.822;23.564;2023-03-19T00:17:21;32.03;;;15.63;;
10144;SDS011;5113;41.822;23.564;2023-03-19T00:20:27;18.70;;;11.40;;
10144;SDS011;5113;41.822;23.564;2023-03-19T00:23:34;24.33;;;12.43;;
10144;SDS011;5113;41.822;23.564;2023-03-19T00:26:41;17.50;;;10.63;;
10144;SDS011;5113;41.822;23.564;2023-03-19T00:29:49;14.20;;;9.33;;
10144;SDS011;5113;41.822;23.564;2023-03-19T00:32:55;15.43;;;8.63;;
10144;SDS011;5113;41.822;23.564;2023-03-19T00:36:02;17.60;;;9.63;;
10144;SDS011;5113;41.822;23.564;2023-03-19T00:39:09;13.93;;;8.50;;
10144;SDS011;5113;41.822;23.564;2023-03-19T00:42:16;12.07;;;8.33;;
10144;SDS011;5113;41.822;23.564;2023-03-19T00:45:23;13.27;;;8.17;;
10144;SDS011;5113;41.822;23.564;2023-03-19T00:48:30;24.40;;;12.13;;
10144;SDS011;5113;41.822;23.564;2023-03-19T00:51:36;25.27;;;13.77;;
10144;SDS011;5113;41.822;23.564;2023-03-19T00:54:47;35.83;;;18.93;;
10144;SDS011;5113;41.822;23.564;2023-03-19T00:57:53;35.33;;;18.40;;
10144;SDS011;5113;41.822;23.564;2023-03-19T01:01:02;38.20;;;20.17;;
10144;SDS011;5113;41.822;23.564;2023-03-19T01:04:09;21.27;;;11.10;;
10144;SDS011;5113;41.822;23.564;2023-03-19T01:07:16;19.93;;;11.80;;
10144;SDS011;5113;41.822;23.564;2023-03-19T01:10:23;27.07;;;13.57;;
10144;SDS011;5113;41.822;23.564;2023-03-19T01:13:29;32.83;;;17.07;;
10144;SDS011;5113;41.822;23.564;2023-03-19T01:16:37;43.60;;;23.83;;
10144;SDS011;5113;41.822;23.564;2023-03-19T01:19:44;16.23;;;9.73;;
10144;SDS011;5113;41.822;23.564;2023-03-19T01:22:51;14.90;;;8.10;;
10144;SDS011;5113;41.822;23.564;2023-03-19T01:25:57;20.80;;;13.07;;
10144;SDS011;5113;41.822;23.564;2023-03-19T01:29:04;21.17;;;11.37;;
10144;SDS011;5113;41.822;23.564;2023-03-19T01:32:12;17.93;;;10.37;;
10144;SDS011;5113;41.822;23.564;2023-03-19T01:35:18;10.20;;;7.37;;
10144;SDS011;5113;41.822;23.564;2023-03-19T01:38:26;13.77;;;8.17;;
10144;SDS011;5113;41.822;23.564;2023-03-19T01:41:32;19.93;;;10.13;;
10144;SDS011;5113;41.822;23.564;2023-03-19T01:44:38;15.03;;;9.40;;
10144;SDS011;5113;41.822;23.564;2023-03-19T01:47:46;10.93;;;8.37;;
10144;SDS011;5113;41.822;23.564;2023-03-19T01:50:53;16.03;;;8.63;;
10144;SDS011;5113;41.822;23.564;2023-03-19T01:54:04;19.20;;;10.33;;
10144;SDS011;5113;41.822;23.564;2023-03-19T01:57:13;13.90;;;9.10;;
10144;SDS011;5113;41.822;23.564;2023-03-19T02:00:21;16.77;;;9.17;;
10144;SDS011;5113;41.822;23.564;2023-03-19T02:03:29;13.67;;;8.13;;
10144;SDS011;5113;41.822;23.564;2023-03-19T02:06:36;15.10;;;8.33;;
10144;SDS011;5113;41.822;23.564;2023-03-19T02:09:44;17.20;;;10.50;;
10144;SDS011;5113;41.822;23.564;2023-03-19T02:12:51;17.27;;;10.17;;
10144;SDS011;5113;41.822;23.564;2023-03-19T02:15:58;17.23;;;9.87;;
10144;SDS011;5113;41.822;23.564;2023-03-19T02:19:06;25.93;;;13.90;;
10144;SDS011;5113;41.822;23.564;2023-03-19T02:22:21;15.17;;;10.20;;
10144;SDS011;5113;41.822;23.564;2023-03-19T02:25:32;17.17;;;9.57;;
10144;SDS011;5113;41.822;23.564;2023-03-19T02:28:47;17.47;;;9.13;;
10144;SDS011;5113;41.822;23.564;2023-03-19T02:31:55;21.33;;;11.27;;
10144;SDS011;5113;41.822;23.564;2023-03-19T02:35:01;30.70;;;12.80;;
10144;SDS011;5113;41.822;23.564;2023-03-19T02:38:08;35.53;;;14.97;;
10144;SDS011;5113;41.822;23.564;2023-03-19T02:41:16;20.80;;;11.07;;
10144;SDS011;5113;41.822;23.564;2023-03-19T02:44:24;19.67;;;9.13;;
10144;SDS011;5113;41.822;23.564;2023-03-19T02:47:30;13.83;;;7.97;;
10144;SDS011;5113;41.822;23.564;2023-03-19T02:50:37;14.10;;;8.73;;
10144;SDS011;5113;41.822;23.564;2023-03-19T02:53:43;17.90;;;8.93;;
10144;SDS011;5113;41.822;23.564;2023-03-19T02:56:49;16.47;;;9.60;;
10144;SDS011;5113;41.822;23.564;2023-03-19T02:59:58;16.00;;;8.43;;
10144;SDS011;5113;41.822;23.564;2023-03-19T03:03:04;12.13;;;8.10;;
10144;SDS011;5113;41.822;23.564;2023-03-19T03:06:11;9.10;;;7.17;;
10144;SDS011;5113;41.822;23.564;2023-03-19T03:09:18;13.67;;;9.27;;
10144;SDS011;5113;41.822;23.564;2023-03-19T03:12:25;11.87;;;8.70;;
10144;SDS011;5113;41.822;23.564;2023-03-19T03:15:33;10.70;;;7.57;;
10144;SDS011;5113;41.822;23.564;2023-03-19T03:18:39;13.77;;;8.67;;
10144;SDS011;5113;41.822;23.564;2023-03-19T03:21:45;10.97;;;6.57;;
10144;SDS011;5113;41.822;23.564;2023-03-19T03:24:51;11.03;;;7.67;;
10144;SDS011;5113;41.822;23.564;2023-03-19T03:27:57;10.63;;;6.63;;
10144;SDS011;5113;41.822;23.564;2023-03-19T03:31:05;9.80;;;6.70;;
10144;SDS011;5113;41.822;23.564;2023-03-19T03:34:12;11.33;;;8.70;;
10144;SDS011;5113;41.822;23.564;2023-03-19T03:37:18;11.17;;;7.13;;
10144;SDS011;5113;41.822;23.564;2023-03-19T03:40:24;12.30;;;7.37;;
10144;SDS011;5113;41.822;23.564;2023-03-19T03:43:31;13.13;;;8.70;;
10144;SDS011;5113;41.822;23.564;2023-03-19T03:46:39;12.20;;;8.80;;
10144;SDS011;5113;41.822;23.564;2023-03-19T03:49:47;13.10;;;8.27;;
10144;SDS011;5113;41.822;23.564;2023-03-19T03:52:53;17.40;;;10.77;;
10144;SDS011;5113;41.822;23.564;2023-03-19T03:56:00;12.17;;;8.10;;
10144;SDS011;5113;41.822;23.564;2023-03-19T03:59:07;13.70;;;8.83;;
10144;SDS011;5113;41.822;23.564;2023-03-19T04:02:15;14.63;;;9.17;;
10144;SDS011;5113;41.822;23.564;2023-03-19T04:05:21;17.27;;;8.40;;
10144;SDS011;5113;41.822;23.564;2023-03-19T04:08:28;14.33;;;10.10;;
10144;SDS011;5113;41.822;23.564;2023-03-19T04:11:35;21.77;;;10.30;;
10144;SDS011;5113;41.822;23.564;2023-03-19T04:14:42;14.33;;;10.83;;
10144;SDS011;5113;41.822;23.564;2023-03-19T04:17:50;21.10;;;11.70;;
10144;SDS011;5113;41.822;23.564;2023-03-19T04:20:56;23.90;;;13.33;;
10144;SDS011;5113;41.822;23.564;2023-03-19T04:24:02;19.67;;;11.83;;
10144;SDS011;5113;41.822;23.564;2023-03-19T04:27:09;23.40;;;11.23;;
10144;SDS011;5113;41.822;23.564;2023-03-19T04:30:16;18.40;;;10.93;;
10144;SDS011;5113;41.822;23.564;2023-03-19T04:33:23;39.50;;;19.50;;
10144;SDS011;5113;41.822;23.564;2023-03-19T04:36:30;36.63;;;19.40;;
10144;SDS011;5113;41.822;23.564;2023-03-19T04:39:37;22.60;;;14.27;;
10144;SDS011;5113;41.822;23.564;2023-03-19T04:42:43;17.57;;;11.57;;
10144;SDS011;5113;41.822;23.564;2023-03-19T04:45:49;15.40;;;10.17;;
10144;SDS011;5113;41.822;23.564;2023-03-19T04:48:57;18.70;;;9.70;;
10144;SDS011;5113;41.822;23.564;2023-03-19T04:52:04;16.03;;;9.23;;
10144;SDS011;5113;41.822;23.564;2023-03-19T04:55:11;14.03;;;8.73;;
10144;SDS011;5113;41.822;23.564;2023-03-19T04:58:17;9.83;;;7.47;;
10144;SDS011;5113;41.822;23.564;2023-03-19T05:01:24;15.47;;;9.50;;
10144;SDS011;5113;41.822;23.564;2023-03-19T05:04:32;16.17;;;10.93;;
10144;SDS011;5113;41.822;23.564;2023-03-19T05:07:40;22.37;;;15.33;;
10144;SDS011;5113;41.822;23.564;2023-03-19T05:10:46;40.30;;;24.17;;
10144;SDS011;5113;41.822;23.564;2023-03-19T05:13:53;55.77;;;24.30;;
10144;SDS011;5113;41.822;23.564;2023-03-19T05:16:59;44.40;;;26.13;;
10144;SDS011;5113;41.822;23.564;2023-03-19T05:20:09;71.17;;;35.77;;
10144;SDS011;5113;41.822;23.564;2023-03-19T05:23:16;65.90;;;36.67;;
10144;SDS011;5113;41.822;23.564;2023-03-19T05:26:23;48.40;;;27.73;;
10144;SDS011;5113;41.822;23.564;2023-03-19T05:29:29;38.10;;;24.20;;
10144;SDS011;5113;41.822;23.564;2023-03-19T05:32:35;58.17;;;29.20;;
10144;SDS011;5113;41.822;23.564;2023-03-19T05:35:45;48.57;;;29.07;;
10144;SDS011;5113;41.822;23.564;2023-03-19T05:38:51;39.43;;;20.57;;
10144;SDS011;5113;41.822;23.564;2023-03-19T05:41:58;28.77;;;18.53;;
10144;SDS011;5113;41.822;23.564;2023-03-19T05:45:04;35.13;;;21.83;;
10144;SDS011;5113;41.822;23.564;2023-03-19T05:48:11;41.93;;;22.00;;
10144;SDS011;5113;41.822;23.564;2023-03-19T05:51:19;33.67;;;19.20;;
10144;SDS011;5113;41.822;23.564;2023-03-19T05:54:25;27.17;;;17.23;;
10144;SDS011;5113;41.822;23.564;2023-03-19T05:57:31;27.70;;;17.03;;
10144;SDS011;5113;41.822;23.564;2023-03-19T06:00:38;37.03;;;20.33;;
10144;SDS011;5113;41.822;23.564;2023-03-19T06:03:45;83.80;;;64.53;;
10144;SDS011;5113;41.822;23.564;2023-03-19T06:06:53;91.97;;;43.33;;
10144;SDS011;5113;41.822;23.564;2023-03-19T06:10:00;87.47;;;43.60;;
10144;SDS011;5113;41.822;23.564;2023-03-19T06:13:06;64.77;;;31.10;;
10144;SDS011;5113;41.822;23.564;2023-03-19T06:16:12;72.83;;;32.27;;
10144;SDS011;5113;41.822;23.564;2023-03-19T06:19:20;63.83;;;30.50;;
10144;SDS011;5113;41.822;23.564;2023-03-19T06:22:27;47.97;;;29.43;;
10144;SDS011;5113;41.822;23.564;2023-03-19T06:25:33;54.07;;;28.50;;
10144;SDS011;5113;41.822;23.564;2023-03-19T06:28:40;37.53;;;22.70;;
10144;SDS011;5113;41.822;23.564;2023-03-19T06:31:46;38.57;;;22.50;;
10144;SDS011;5113;41.822;23.564;2023-03-19T06:34:52;27.17;;;15.17;;
10144;SDS011;5113;41.822;23.564;2023-03-19T06:38:01;23.40;;;15.63;;
10144;SDS011;5113;41.822;23.564;2023-03-19T06:41:08;25.67;;;17.90;;
10144;SDS011;5113;41.822;23.564;2023-03-19T06:44:14;27.00;;;15.30;;
10144;SDS011;5113;41.822;23.564;2023-03-19T06:47:20;21.50;;;13.30;;
10144;SDS011;5113;41.822;23.564;2023-03-19T06:50:27;17.03;;;12.23;;
10144;SDS011;5113;41.822;23.564;2023-03-19T06:53:35;10.90;;;8.70;;
10144;SDS011;5113;41.822;23.564;2023-03-19T06:56:41;14.03;;;8.27;;
10144;SDS011;5113;41.822;23.564;2023-03-19T06:59:48;17.77;;;10.87;;
10144;SDS011;5113;41.822;23.564;2023-03-19T07:02:55;11.93;;;8.20;;
10144;SDS011;5113;41.822;23.564;2023-03-19T07:06:01;9.60;;;7.47;;
10144;SDS011;5113;41.822;23.564;2023-03-19T07:09:09;10.90;;;6.53;;
10144;SDS011;5113;41.822;23.564;2023-03-19T07:12:15;11.13;;;6.37;;
10144;SDS011;5113;41.822;23.564;2023-03-19T07:15:22;10.70;;;7.17;;
10144;SDS011;5113;41.822;23.564;2023-03-19T07:18:28;11.00;;;6.80;;
10144;SDS011;5113;41.822;23.564;2023-03-19T07:21:35;7.13;;;5.50;;
10144;SDS011;5113;41.822;23.564;2023-03-19T07:24:43;11.73;;;6.57;;
10144;SDS011;5113;41.822;23.564;2023-03-19T07:27:49;12.83;;;9.50;;
10144;SDS011;5113;41.822;23.564;2023-03-19T07:30:59;10.87;;;7.17;;
10144;SDS011;5113;41.822;23.564;2023-03-19T07:34:05;9.53;;;6.00;;
10144;SDS011;5113;41.822;23.564;2023-03-19T07:37:11;13.50;;;10.10;;
10144;SDS011;5113;41.822;23.564;2023-03-19T07:40:19;10.37;;;7.80;;
10144;SDS011;5113;41.822;23.564;2023-03-19T07:43:25;12.20;;;7.33;;
10144;SDS011;5113;41.822;23.564;2023-03-19T07:46:32;11.43;;;8.17;;
10144;SDS011;5113;41.822;23.564;2023-03-19T07:49:38;13.17;;;9.37;;
10144;SDS011;5113;41.822;23.564;2023-03-19T07:52:44;13.77;;;7.43;;
10144;SDS011;5113;41.822;23.564;2023-03-19T07:55:52;9.20;;;6.47;;
10144;SDS011;5113;41.822;23.564;2023-03-19T07:58:59;9.93;;;5.70;;
10144;SDS011;5113;41.822;23.564;2023-03-19T08:02:05;16.23;;;8.63;;
10144;SDS011;5113;41.822;23.564;2023-03-19T08:05:15;8.37;;;6.20;;
10144;SDS011;5113;41.822;23.564;2023-03-19T08:08:21;11.20;;;5.93;;
10144;SDS011;5113;41.822;23.564;2023-03-19T08:11:29;10.17;;;6.70;;
10144;SDS011;5113;41.822;23.564;2023-03-19T08:14:36;5.63;;;4.63;;
10144;SDS011;5113;41.822;23.564;2023-03-19T08:17:42;7.20;;;5.13;;
10144;SDS011;5113;41.822;23.564;2023-03-19T08:20:49;6.70;;;4.80;;
10144;SDS011;5113;41.822;23.564;2023-03-19T08:23:56;7.73;;;5.23;;
10144;SDS011;5113;41.822;23.564;2023-03-19T08:27:04;8.10;;;4.70;;
10144;SDS011;5113;41.822;23.564;2023-03-19T08:30:11;11.17;;;5.67;;
10144;SDS011;5113;41.822;23.564;2023-03-19T08:33:18;8.47;;;6.17;;
10144;SDS011;5113;41.822;23.564;2023-03-19T08:36:25;10.40;;;6.67;;
10144;SDS011;5113;41.822;23.564;2023-03-19T08:39:32;9.67;;;5.60;;
10144;SDS011;5113;41.822;23.564;2023-03-19T08:42:40;7.10;;;5.30;;
10144;SDS011;5113;41.822;23.564;2023-03-19T08:45:48;5.17;;;4.57;;
10144;SDS011;5113;41.822;23.564;2023-03-19T08:48:55;9.50;;;6.17;;
10144;SDS011;5113;41.822;23.564;2023-03-19T08:52:01;5.23;;;3.97;;
10144;SDS011;5113;41.822;23.564;2023-03-19T08:55:08;4.20;;;3.63;;
10144;SDS011;5113;41.822;23.564;2023-03-19T08:58:16;5.37;;;3.57;;
10144;SDS011;5113;41.822;23.564;2023-03-19T09:01:22;6.33;;;4.73;;
10144;SDS011;5113;41.822;23.564;2023-03-19T09:04:28;5.60;;;3.63;;
10144;SDS011;5113;41.822;23.564;2023-03-19T09:07:40;6.10;;;4.20;;
10144;SDS011;5113;41.822;23.564;2023-03-19T09:10:46;3.83;;;2.80;;
10144;SDS011;5113;41.822;23.564;2023-03-19T09:13:56;3.10;;;2.73;;
10144;SDS011;5113;41.822;23.564;2023-03-19T09:17:03;4.10;;;3.03;;
10144;SDS011;5113;41.822;23.564;2023-03-19T09:20:09;3.27;;;3.07;;
10144;SDS011;5113;41.822;23.564;2023-03-19T09:23:16;3.60;;;3.10;;
10144;SDS011;5113;41.822;23.564;2023-03-19T09:26:22;3.37;;;2.87;;
10144;SDS011;5113;41.822;23.564;2023-03-19T09:29:30;3.10;;;2.33;;
10144;SDS011;5113;41.822;23.564;2023-03-19T09:32:36;3.93;;;3.30;;
10144;SDS011;5113;41.822;23.564;2023-03-19T09:35:43;2.90;;;2.60;;
10144;SDS011;5113;41.822;23.564;2023-03-19T09:38:54;4.10;;;3.40;;
10144;SDS011;5113;41.822;23.564;2023-03-19T09:42:04;3.57;;;3.27;;
10144;SDS011;5113;41.822;23.564;2023-03-19T09:45:22;3.23;;;2.97;;
10144;SDS011;5113;41.822;23.564;2023-03-19T09:48:33;3.87;;;3.20;;
10144;SDS011;5113;41.822;23.564;2023-03-19T09:51:45;2.53;;;2.33;;
10144;SDS011;5113;41.822;23.564;2023-03-19T09:54:55;2.00;;;1.90;;
10144;SDS011;5113;41.822;23.564;2023-03-19T09:58:07;1.50;;;1.40;;
10144;SDS011;5113;41.822;23.564;2023-03-19T10:01:26;2.07;;;1.97;;
10144;SDS011;5113;41.822;23.564;2023-03-19T10:04:47;1.67;;;1.20;;
10144;SDS011;5113;41.822;23.564;2023-03-19T10:08:09;3.90;;;2.53;;
10144;SDS011;5113;41.822;23.564;2023-03-19T10:11:28;2.37;;;2.07;;
10144;SDS011;5113;41.822;23.564;2023-03-19T10:14:47;4.17;;;3.07;;
10144;SDS011;5113;41.822;23.564;2023-03-19T10:18:05;2.97;;;1.73;;
10144;SDS011;5113;41.822;23.564;2023-03-19T10:21:18;1.90;;;1.77;;
10144;SDS011;5113;41.822;23.564;2023-03-19T10:24:30;2.30;;;2.10;;
10144;SDS011;5113;41.822;23.564;2023-03-19T10:27:40;2.50;;;2.30;;
10144;SDS011;5113;41.822;23.564;2023-03-19T10:30:51;1.93;;;1.83;;
10144;SDS011;5113;41.822;23.564;2023-03-19T10:34:09;1.40;;;1.40;;
10144;SDS011;5113;41.822;23.564;2023-03-19T10:37:26;1.33;;;1.23;;
10144;SDS011;5113;41.822;23.564;2023-03-19T10:40:35;1.60;;;1.60;;
10144;SDS011;5113;41.822;23.564;2023-03-19T10:43:53;2.07;;;1.97;;
10144;SDS011;5113;41.822;23.564;2023-03-19T10:47:10;1.80;;;1.80;;
10144;SDS011;5113;41.822;23.564;2023-03-19T10:50:19;1.90;;;1.80;;
10144;SDS011;5113;41.822;23.564;2023-03-19T10:53:29;1.47;;;1.40;;
10144;SDS011;5113;41.822;23.564;2023-03-19T10:56:38;1.57;;;1.47;;
10144;SDS011;5113;41.822;23.564;2023-03-19T10:59:51;1.60;;;1.60;;
10144;SDS011;5113;41.822;23.564;2023-03-19T11:02:58;1.80;;;1.70;;
10144;SDS011;5113;41.822;23.564;2023-03-19T11:06:20;2.17;;;1.97;;
10144;SDS011;5113;41.822;23.564;2023-03-19T11:09:31;1.73;;;1.63;;
10144;SDS011;5113;41.822;23.564;2023-03-19T11:12:39;2.30;;;2.10;;
10144;SDS011;5113;41.822;23.564;2023-03-19T11:15:46;1.53;;;1.43;;
10144;SDS011;5113;41.822;23.564;2023-03-19T11:18:53;2.00;;;1.90;;
10144;SDS011;5113;41.822;23.564;2023-03-19T11:22:02;1.80;;;1.70;;
10144;SDS011;5113;41.822;23.564;2023-03-19T11:25:15;1.63;;;1.53;;
10144;SDS011;5113;41.822;23.564;2023-03-19T11:28:24;1.47;;;1.37;;
10144;SDS011;5113;41.822;23.564;2023-03-19T11:31:38;1.30;;;1.30;;
10144;SDS011;5113;41.822;23.564;2023-03-19T11:34:51;1.80;;;1.70;;
10144;SDS011;5113;41.822;23.564;2023-03-19T11:38:05;1.83;;;1.73;;
10144;SDS011;5113;41.822;23.564;2023-03-19T11:41:23;1.67;;;1.57;;
10144;SDS011;5113;41.822;23.564;2023-03-19T11:44:38;2.70;;;2.50;;
10144;SDS011;5113;41.822;23.564;2023-03-19T11:47:58;3.17;;;2.87;;
10144;SDS011;5113;41.822;23.564;2023-03-19T11:51:21;3.50;;;2.67;;
10144;SDS011;5113;41.822;23.564;2023-03-19T11:54:38;2.20;;;2.00;;
10144;SDS011;5113;41.822;23.564;2023-03-19T11:57:57;1.77;;;1.67;;
10144;SDS011;5113;41.822;23.564;2023-03-19T12:01:28;2.03;;;1.93;;
10144;SDS011;5113;41.822;23.564;2023-03-19T12:08:23;1.70;;;1.60;;
10144;SDS011;5113;41.822;23.564;2023-03-19T12:11:41;2.90;;;2.07;;
10144;SDS011;5113;41.822;23.564;2023-03-19T12:15:00;2.50;;;2.30;;
10144;SDS011;5113;41.822;23.564;2023-03-19T12:18:20;1.80;;;1.70;;
10144;SDS011;5113;41.822;23.564;2023-03-19T12:21:40;2.20;;;1.73;;
10144;SDS011;5113;41.822;23.564;2023-03-19T12:25:00;3.40;;;2.30;;
10144;SDS011;5113;41.822;23.564;2023-03-19T12:28:20;2.30;;;2.20;;
10144;SDS011;5113;41.822;23.564;2023-03-19T12:31:35;2.70;;;2.50;;
10144;SDS011;5113;41.822;23.564;2023-03-19T12:34:54;2.90;;;2.70;;
10144;SDS011;5113;41.822;23.564;2023-03-19T12:38:07;3.60;;;2.37;;
10144;SDS011;5113;41.822;23.564;2023-03-19T12:41:19;1.63;;;1.60;;
10144;SDS011;5113;41.822;23.564;2023-03-19T12:44:29;1.93;;;1.77;;
10144;SDS011;5113;41.822;23.564;2023-03-19T12:47:40;2.70;;;2.07;;
10144;SDS011;5113;41.822;23.564;2023-03-19T12:50:51;1.93;;;1.83;;
10144;SDS011;5113;41.822;23.564;2023-03-19T12:54:02;2.00;;;1.90;;
10144;SDS011;5113;41.822;23.564;2023-03-19T12:57:14;2.10;;;2.00;;
10144;SDS011;5113;41.822;23.564;2023-03-19T13:00:29;1.60;;;1.50;;
10144;SDS011;5113;41.822;23.564;2023-03-19T13:03:40;2.43;;;2.27;;
10144;SDS011;5113;41.822;23.564;2023-03-19T13:06:57;2.83;;;2.50;;
10144;SDS011;5113;41.822;23.564;2023-03-19T13:10:08;2.97;;;2.40;;
10144;SDS011;5113;41.822;23.564;2023-03-19T13:13:27;1.90;;;1.80;;
10144;SDS011;5113;41.822;23.564;2023-03-19T13:16:44;1.90;;;1.80;;
10144;SDS011;5113;41.822;23.564;2023-03-19T13:19:57;2.60;;;2.40;;
10144;SDS011;5113;41.822;23.564;2023-03-19T13:23:06;2.40;;;2.20;;
10144;SDS011;5113;41.822;23.564;2023-03-19T13:26:17;2.30;;;2.20;;
10144;SDS011;5113;41.822;23.564;2023-03-19T13:29:24;3.13;;;2.93;;
10144;SDS011;5113;41.822;23.564;2023-03-19T13:32:38;3.57;;;3.23;;
10144;SDS011;5113;41.822;23.564;2023-03-19T13:35:46;4.50;;;3.27;;
10144;SDS011;5113;41.822;23.564;2023-03-19T13:38:55;2.73;;;2.53;;
10144;SDS011;5113;41.822;23.564;2023-03-19T13:42:20;4.07;;;2.73;;
10144;SDS011;5113;41.822;23.564;2023-03-19T13:45:30;3.93;;;3.10;;
10144;SDS011;5113;41.822;23.564;2023-03-19T13:48:49;5.17;;;3.77;;
10144;SDS011;5113;41.822;23.564;2023-03-19T13:51:57;3.17;;;2.70;;
10144;SDS011;5113;41.822;23.564;2023-03-19T13:55:25;7.83;;;4.73;;
10144;SDS011;5113;41.822;23.564;2023-03-19T13:58:45;4.57;;;3.37;;
10144;SDS011;5113;41.822;23.564;2023-03-19T14:01:55;2.83;;;2.63;;
10144;SDS011;5113;41.822;23.564;2023-03-19T14:05:06;8.13;;;5.27;;
10144;SDS011;5113;41.822;23.564;2023-03-19T14:08:22;21.23;;;11.17;;
10144;SDS011;5113;41.822;23.564;2023-03-19T14:11:31;16.63;;;9.43;;
10144;SDS011;5113;41.822;23.564;2023-03-19T14:14:41;10.53;;;6.30;;
10144;SDS011;5113;41.822;23.564;2023-03-19T14:17:55;6.33;;;5.73;;
10144;SDS011;5113;41.822;23.564;2023-03-19T14:21:09;4.33;;;3.40;;
10144;SDS011;5113;41.822;23.564;2023-03-19T14:24:27;3.33;;;3.03;;
10144;SDS011;5113;41.822;23.564;2023-03-19T14:27:58;4.50;;;4.10;;
10144;SDS011;5113;41.822;23.564;2023-03-19T14:31:13;7.23;;;5.30;;
10144;SDS011;5113;41.822;23.564;2023-03-19T14:34:25;2.77;;;2.57;;
10144;SDS011;5113;41.822;23.564;2023-03-19T14:37:40;3.97;;;3.43;;
10144;SDS011;5113;41.822;23.564;2023-03-19T14:40:51;3.33;;;3.03;;
10144;SDS011;5113;41.822;23.564;2023-03-19T14:44:04;1.97;;;1.87;;
10144;SDS011;5113;41.822;23.564;2023-03-19T14:54:53;4.93;;;4.43;;
10144;SDS011;5113;41.822;23.564;2023-03-19T14:58:03;4.33;;;3.93;;
10144;SDS011;5113;41.822;23.564;2023-03-19T15:01:11;6.20;;;5.40;;
10144;SDS011;5113;41.822;23.564;2023-03-19T15:04:19;11.23;;;7.40;;
10144;SDS011;5113;41.822;23.564;2023-03-19T15:07:30;22.23;;;12.07;;
10144;SDS011;5113;41.822;23.564;2023-03-19T15:10:43;19.00;;;10.73;;
10144;SDS011;5113;41.822;23.564;2023-03-19T15:14:05;19.20;;;13.53;;
10144;SDS011;5113;41.822;23.564;2023-03-19T15:17:22;23.93;;;14.97;;
10144;SDS011;5113;41.822;23.564;2023-03-19T15:20:33;13.07;;;8.60;;
10144;SDS011;5113;41.822;23.564;2023-03-19T15:23:44;10.20;;;6.23;;
10144;SDS011;5113;41.822;23.564;2023-03-19T15:26:52;11.57;;;7.80;;
10144;SDS011;5113;41.822;23.564;2023-03-19T15:29:59;5.27;;;4.30;;
10144;SDS011;5113;41.822;23.564;2023-03-19T15:33:19;9.37;;;5.23;;
10144;SDS011;5113;41.822;23.564;2023-03-19T15:36:44;16.07;;;11.43;;
10144;SDS011;5113;41.822;23.564;2023-03-19T15:39:52;18.47;;;10.23;;
10144;SDS011;5113;41.822;23.564;2023-03-19T15:43:01;20.93;;;12.70;;
10144;SDS011;5113;41.822;23.564;2023-03-19T15:46:09;22.70;;;14.30;;
10144;SDS011;5113;41.822;23.564;2023-03-19T15:49:19;19.07;;;12.87;;
10144;SDS011;5113;41.822;23.564;2023-03-19T15:52:29;16.17;;;10.47;;
10144;SDS011;5113;41.822;23.564;2023-03-19T15:55:38;10.77;;;7.70;;
10144;SDS011;5113;41.822;23.564;2023-03-19T15:58:47;126.27;;;78.97;;
10144;SDS011;5113;41.822;23.564;2023-03-19T16:01:57;44.87;;;25.63;;
10144;SDS011;5113;41.822;23.564;2023-03-19T16:05:06;34.87;;;21.37;;
10144;SDS011;5113;41.822;23.564;2023-03-19T16:08:27;29.53;;;15.77;;
10144;SDS011;5113;41.822;23.564;2023-03-19T16:11:35;21.07;;;13.63;;
10144;SDS011;5113;41.822;23.564;2023-03-19T16:14:44;26.87;;;15.53;;
10144;SDS011;5113;41.822;23.564;2023-03-19T16:17:50;61.50;;;32.93;;
10144;SDS011;5113;41.822;23.564;2023-03-19T16:21:05;60.90;;;32.60;;
10144;SDS011;5113;41.822;23.564;2023-03-19T16:24:13;46.97;;;27.67;;
10144;SDS011;5113;41.822;23.564;2023-03-19T16:27:31;49.77;;;28.33;;
10144;SDS011;5113;41.822;23.564;2023-03-19T16:30:45;33.83;;;19.77;;
10144;SDS011;5113;41.822;23.564;2023-03-19T16:33:53;48.17;;;26.23;;
10144;SDS011;5113;41.822;23.564;2023-03-19T16:37:00;61.63;;;28.30;;
10144;SDS011;5113;41.822;23.564;2023-03-19T16:43:50;50.57;;;31.67;;
10144;SDS011;5113;41.822;23.564;2023-03-19T16:47:00;38.07;;;22.93;;
10144;SDS011;5113;41.822;23.564;2023-03-19T16:50:06;52.63;;;31.00;;
10144;SDS011;5113;41.822;23.564;2023-03-19T16:53:18;22.40;;;15.07;;
10144;SDS011;5113;41.822;23.564;2023-03-19T16:56:27;16.93;;;10.33;;
10144;SDS011;5113;41.822;23.564;2023-03-19T16:59:34;15.67;;;9.50;;
10144;SDS011;5113;41.822;23.564;2023-03-19T17:02:42;23.17;;;13.83;;
10144;SDS011;5113;41.822;23.564;2023-03-19T17:05:48;42.80;;;22.40;;
10144;SDS011;5113;41.822;23.564;2023-03-19T17:08:55;49.63;;;23.50;;
10144;SDS011;5113;41.822;23.564;2023-03-19T17:12:02;67.83;;;33.67;;
10144;SDS011;5113;41.822;23.564;2023-03-19T17:15:15;55.40;;;27.13;;
10144;SDS011;5113;41.822;23.564;2023-03-19T17:18:27;49.27;;;23.07;;
10144;SDS011;5113;41.822;23.564;2023-03-19T17:21:37;73.80;;;36.17;;
10144;SDS011;5113;41.822;23.564;2023-03-19T17:24:43;98.67;;;51.80;;
10144;SDS011;5113;41.822;23.564;2023-03-19T17:27:49;54.80;;;27.10;;
10144;SDS011;5113;41.822;23.564;2023-03-19T17:30:55;26.87;;;15.40;;
10144;SDS011;5113;41.822;23.564;2023-03-19T17:34:05;36.60;;;11.87;;
10144;SDS011;5113;41.822;23.564;2023-03-19T17:37:16;25.63;;;14.60;;
10144;SDS011;5113;41.822;23.564;2023-03-19T17:40:23;80.03;;;34.40;;
10144;SDS011;5113;41.822;23.564;2023-03-19T17:43:32;63.47;;;33.77;;
10144;SDS011;5113;41.822;23.564;2023-03-19T17:46:39;111.70;;;51.37;;
10144;SDS011;5113;41.822;23.564;2023-03-19T17:49:48;78.20;;;37.73;;
10144;SDS011;5113;41.822;23.564;2023-03-19T17:52:55;84.57;;;38.73;;
10144;SDS011;5113;41.822;23.564;2023-03-19T17:56:02;49.00;;;24.77;;
10144;SDS011;5113;41.822;23.564;2023-03-19T17:59:09;56.10;;;26.50;;
10144;SDS011;5113;41.822;23.564;2023-03-19T18:02:21;59.50;;;30.27;;
10144;SDS011;5113;41.822;23.564;2023-03-19T18:05:31;72.43;;;36.87;;
10144;SDS011;5113;41.822;23.564;2023-03-19T18:08:37;69.33;;;34.37;;
10144;SDS011;5113;41.822;23.564;2023-03-19T18:11:44;56.97;;;30.37;;
10144;SDS011;5113;41.822;23.564;2023-03-19T18:14:50;66.67;;;37.83;;
10144;SDS011;5113;41.822;23.564;2023-03-19T18:18:00;37.20;;;19.90;;
10144;SDS011;5113;41.822;23.564;2023-03-19T18:21:10;9.97;;;6.60;;
10144;SDS011;5113;41.822;23.564;2023-03-19T18:24:19;7.23;;;4.47;;
10144;SDS011;5113;41.822;23.564;2023-03-19T18:27:25;10.33;;;4.97;;
10144;SDS011;5113;41.822;23.564;2023-03-19T18:30:32;4.70;;;3.67;;
10144;SDS011;5113;41.822;23.564;2023-03-19T18:33:40;9.97;;;6.23;;
10144;SDS011;5113;41.822;23.564;2023-03-19T18:36:51;11.77;;;7.17;;
10144;SDS011;5113;41.822;23.564;2023-03-19T18:39:57;11.67;;;7.37;;
10144;SDS011;5113;41.822;23.564;2023-03-19T18:43:04;12.50;;;8.00;;
10144;SDS011;5113;41.822;23.564;2023-03-19T18:46:13;17.67;;;9.93;;
10144;SDS011;5113;41.822;23.564;2023-03-19T18:49:25;50.50;;;22.97;;
10144;SDS011;5113;41.822;23.564;2023-03-19T18:52:33;50.33;;;22.27;;
10144;SDS011;5113;41.822;23.564;2023-03-19T18:55:40;12.13;;;7.13;;
10144;SDS011;5113;41.822;23.564;2023-03-19T18:58:47;8.73;;;5.73;;